East Ashtabula, Ohio
Current Conditions -  °F | °C
As of 1:53 PM on Tuesday 21 Oct 2014 (Local Time) from KHZY Reporting Station
Overcast Overcast  
Wind Chill: 50°   Ceiling: 2800
Heat Index: 50°   Visibility: 10mi
Dew Point: 44°   Wind: 8mph
Humidity: 80%   Direction: 340°NNW
Pressure: 29.92"   Gusts: NA
Location:  41.8515°N, 80.79°W
Report Text: KHZY 211753Z AUTO 34007KT 10SM SCT021 OVC028 10/07 A2992 RMK AO2 SLP134 60007 T01000067 10100 20094 51007
Loading
Personal Weather Stations






























Interactive Weather Map
Tropical Storm Tracking
New forecast layout! Learn more

10-Day Weather Forecast

Advertisements
Track Severe Weather on mobile